Tropical Cyclones
[Index]
Main Index Home Page Stock Weather Photos Extreme Storms Discussion Storm News and Storm Chasing Reports Tropical Cyclones / Hurricanes / Typhoons Weather Data and Links Wild Fires / Bushfires Weather Observation Techniques Weather Picture Catalogue Tornado Pictures and Reports Stock Video Footage and DVDs for sale
Season 2012-2013 Tropical Cyclone ANAIS Track Map
Season 2012-2013 Summaries (Operational Data): [AU] [SIO] [SPAC] [SH]
<<- Previous TC | 2012-2013 Season | Next TC ->>

click for intensity scale information  Lat/long Grid: Show Hide

 Date Labels: Show Hide

Operational Tropical Cyclone Data : JTWC Advisories

Name: ANAIS
Number: 1301

11 Oct 2012 06:00 UTC to 18 Oct 2012 18:00 UTC

    date/time    lat    long     hPa   cat  kts
2012-10-11 06    6.1    73.3    1010         15          
2012-10-11 12    6.3    73.0    1010         15          
2012-10-11 18    6.5    72.8    1010         15          
2012-10-12 00    7.0    72.3    1000         30          
2012-10-12 06    7.6    71.5    1000         30          
2012-10-12 12    8.0    71.1     996    1    35          
2012-10-12 18    8.3    70.7     993    1    40          
2012-10-13 00    8.9    70.1     989    1    45          
2012-10-13 06    9.6    69.3     989    1    45          
2012-10-13 12   10.0    68.5     974    3    65          
2012-10-13 18   10.5    67.9     956    4    90          
2012-10-14 00   10.9    66.9     959    3    85          
2012-10-14 06   11.1    66.3     952    4    95          
2012-10-14 12   11.5    65.8     944    4   105          
2012-10-14 18   11.9    65.3     944    4   105          
2012-10-15 00   12.4    64.9     948    4   100          
2012-10-15 06   12.9    64.4     941    5   110          
2012-10-15 12   13.4    63.7     948    4   100          
2012-10-15 18   13.5    63.0     952    4    95          
2012-10-16 00   13.7    62.1     967    3    75          
2012-10-16 06   14.0    61.1     974    3    65          
2012-10-16 06   14.0    61.1     974    3    65          
2012-10-16 12   14.2    60.2     982    2    55          
2012-10-16 18   14.5    59.1     985    2    50          
2012-10-17 00   15.0    58.0     989    1    45          
2012-10-17 06   15.4    57.5     993    1    40          
2012-10-17 12   15.8    56.6     996    1    35          
2012-10-17 18   16.0    55.6     996    1    35          
2012-10-18 00   16.0    54.6    1000         30          
2012-10-18 06   16.0    54.3    1000         30          
2012-10-18 12   16.0    53.5    1000         30          
2012-10-18 18   16.5    52.7    1000         30          
Winds are 10-min average.

Tropical cyclone tracks developed by Michael Bath using operational warnings and advisories and Google Maps.


[Australian Severe Weather index] [Copyright Notice] [Email Contacts] [Search This Site] [Privacy Policy]
Document: tropical_cyclone_anais.htm Updated: 2 May 2017